Royal Engineer — WDF6370 — position and weather

sailwx.info

Track history (hours):
 
Tides and Currents Weather Stations Pressure Air Temp Water Temp Dewpoint Dewpoint Depression Visibility Wind Speed Wind Dir Waves Ship Positions

Royal Engineer

Owner: Royal Engineer, Yonges Island, SC. More information available from US FCC via Universal Licensing System and Coast Guard Vessel Documentation Center.

Last reported at 2017-Dec-11 17:00 UTC. Time now 2017-Dec-13 14:57 UTC.
Position N 39°12' W 076°35'.

Length 16 m; draft 2.5 m.

Type: Towing. MMSI: 367473540.

Date/timePositionNaut miles runAvg speedWind from/ knotsBaromVisibWave heightAir tempDewpointWater temp
2017-Dec-11 17:00N 39°12' W 076°35'0 0.0
2017-Dec-11 16:31N 39°12' W 076°35'0 0.0
2017-Dec-11 16:01N 39°12' W 076°35'3 5.0
2017-Dec-11 15:30N 39°13' W 076°32'3 6.7
2017-Dec-11 15:01N 39°11' W 076°28'3 6.7
2017-Dec-11 14:31N 39°09' W 076°25'3 6.4
2017-Dec-11 14:00N 39°06' W 076°24'3 6.3
2017-Dec-11 13:31N 39°03' W 076°23'3 6.0
2017-Dec-11 13:01N 39°00' W 076°23'3 6.0
2017-Dec-11 12:30N 38°57' W 076°24'3 6.1
2017-Dec-11 12:00N 38°54' W 076°25'3 5.8
2017-Dec-11 11:27N 38°51' W 076°26'46 5.7
2017-Dec-11 03:22N 38°06' W 076°16'2 5.7
2017-Dec-11 02:57N 38°04' W 076°15'67 6.1
2017-Dec-10 16:06N 36°57' W 076°20'2 5.5
2017-Dec-10 15:46N 36°55' W 076°20'2 5.7
2017-Dec-10 15:30N 36°54' W 076°20'3 5.6
2017-Dec-10 15:00N 36°51' W 076°19'3 5.9
2017-Dec-10 14:30N 36°49' W 076°17'2 4.6
2017-Dec-10 14:01N 36°46' W 076°18'3 5.1
2017-Dec-10 13:31N 36°44' W 076°17'2 3.3
2017-Dec-10 13:00N 36°43' W 076°15'0 0.4
2017-Dec-10 12:30N 36°43' W 076°15'0 0.0
2017-Dec-10 12:00N 36°43' W 076°15'0 0.0
2017-Dec-10 11:31N 36°43' W 076°15'0 0.0
2017-Dec-10 11:00N 36°43' W 076°15'0 0.0
2017-Dec-10 10:31N 36°43' W 076°15'0 0.0
2017-Dec-10 10:01N 36°43' W 076°15'0 0.0
2017-Dec-10 09:31N 36°43' W 076°15'0 0.0
2017-Dec-10 09:00N 36°43' W 076°15'0 0.0
2017-Dec-10 08:30N 36°43' W 076°15'0 0.0
2017-Dec-10 08:01N 36°43' W 076°15'0 0.0
2017-Dec-10 07:30N 36°43' W 076°15'0 0.0
2017-Dec-10 07:01N 36°43' W 076°15'0 0.0
2017-Dec-10 06:31N 36°43' W 076°15'0 0.0
2017-Dec-10 06:01N 36°43' W 076°15'0 0.0
2017-Dec-10 05:30N 36°43' W 076°15'0 0.0
2017-Dec-10 05:00N 36°43' W 076°15'0 0.0
2017-Dec-10 04:30N 36°43' W 076°15'0 0.0
2017-Dec-10 04:00N 36°43' W 076°15'0 0.0
2017-Dec-10 03:31N 36°43' W 076°15'0 0.0
2017-Dec-10 03:00N 36°43' W 076°15'0 0.0
2017-Dec-10 02:30N 36°43' W 076°15'0 0.0
2017-Dec-10 02:00N 36°43' W 076°15'0 0.0
2017-Dec-10 01:31N 36°43' W 076°15'0 0.0
2017-Dec-10 01:01N 36°43' W 076°15'0 0.0
2017-Dec-10 00:28N 36°43' W 076°15'0 0.0
2017-Dec-09 23:28N 36°43' W 076°15'0 0.0
2017-Dec-09 22:56N 36°43' W 076°15'0 0.0
2017-Dec-09 22:25N 36°43' W 076°15'0 0.9
2017-Dec-09 22:01N 36°43' W 076°14'3 5.3
2017-Dec-09 21:21N 36°43' W 076°10'2 5.3
2017-Dec-09 20:57N 36°43' W 076°07'3 5.0
2017-Dec-09 20:20N 36°42' W 076°04'2 5.2
2017-Dec-09 19:58N 36°40' W 076°04'1 0.0
2017-Dec-07 18:55N 36°41' W 076°04'2 3.6
2017-Dec-07 18:21N 36°43' W 076°05'1 3.5
2017-Dec-07 17:57N 36°43' W 076°07'5 3.3
2017-Dec-07 16:28N 36°43' W 076°13'2 3.5
2017-Dec-07 16:00N 36°43' W 076°15'0 0.5
2017-Dec-07 15:31N 36°43' W 076°15'1 2.6
2017-Dec-07 15:00N 36°44' W 076°16'2 4.0
2017-Dec-07 14:31N 36°46' W 076°18'1 2.3
2017-Dec-07 14:01N 36°47' W 076°18'0 0.0
2017-Dec-07 13:31N 36°47' W 076°18'1 2.4
2017-Dec-07 13:01N 36°45' W 076°18'2 4.8
2017-Dec-07 12:30N 36°44' W 076°16'1 2.5
2017-Dec-07 12:01N 36°43' W 076°14'1 1.1
2017-Dec-07 11:28N 36°43' W 076°14'  
2017-Dec-02 00:44N 35°05' W 076°33'1 4.5
2017-Dec-02 00:25N 35°04' W 076°34'2 4.4
2017-Dec-01 23:59N 35°03' W 076°36'2 4.5
2017-Dec-01 23:28N 35°02' W 076°38'2 4.3
2017-Dec-01 22:57N 35°00' W 076°41'3 3.5
2017-Dec-01 22:05N 34°57' W 076°40'0 4.1
2017-Dec-01 22:01N 34°57' W 076°40'2 3.4
2017-Dec-01 21:31N 34°55' W 076°40'2 3.3
2017-Dec-01 21:01N 34°54' W 076°41'1 2.7
2017-Dec-01 20:31N 34°53' W 076°41'1 2.8
2017-Dec-01 20:00N 34°51' W 076°41'1 2.5
2017-Dec-01 19:30N 34°50' W 076°41'1 2.3
2017-Dec-01 19:01N 34°49' W 076°41'1 2.5
2017-Dec-01 18:30N 34°48' W 076°41'1 2.4
2017-Dec-01 18:01N 34°47' W 076°41'1 2.9
2017-Dec-01 17:31N 34°45' W 076°40'2 3.3
2017-Dec-01 17:01N 34°44' W 076°42'  
Track history (hours):
 
Tides and Currents Weather Stations Pressure Air Temp Water Temp Dewpoint Dewpoint Depression Visibility Wind Speed Wind Dir Waves Ship Positions

Royal Engineer

Owner: Royal Engineer, Yonges Island, SC. More information available from US FCC via Universal Licensing System and Coast Guard Vessel Documentation Center.

Last reported at 2017-Dec-11 17:00 UTC. Time now 2017-Dec-13 14:57 UTC.
Position N 39°12' W 076°35'.

Length 16 m; draft 2.5 m.

Type: Towing. MMSI: 367473540.

Date/timePositionNaut miles runAvg speedWind from/ knotsBaromVisibWave heightAir tempDewpointWater temp
2017-Dec-11 17:00N 39°12' W 076°35'0 0.0
2017-Dec-11 16:31N 39°12' W 076°35'0 0.0
2017-Dec-11 16:01N 39°12' W 076°35'3 5.0
2017-Dec-11 15:30N 39°13' W 076°32'3 6.7
2017-Dec-11 15:01N 39°11' W 076°28'3 6.7
2017-Dec-11 14:31N 39°09' W 076°25'3 6.4
2017-Dec-11 14:00N 39°06' W 076°24'3 6.3
2017-Dec-11 13:31N 39°03' W 076°23'3 6.0
2017-Dec-11 13:01N 39°00' W 076°23'3 6.0
2017-Dec-11 12:30N 38°57' W 076°24'3 6.1
2017-Dec-11 12:00N 38°54' W 076°25'3 5.8
2017-Dec-11 11:27N 38°51' W 076°26'46 5.7
2017-Dec-11 03:22N 38°06' W 076°16'2 5.7
2017-Dec-11 02:57N 38°04' W 076°15'67 6.1
2017-Dec-10 16:06N 36°57' W 076°20'2 5.5
2017-Dec-10 15:46N 36°55' W 076°20'2 5.7
2017-Dec-10 15:30N 36°54' W 076°20'3 5.6
2017-Dec-10 15:00N 36°51' W 076°19'3 5.9
2017-Dec-10 14:30N 36°49' W 076°17'2 4.6
2017-Dec-10 14:01N 36°46' W 076°18'3 5.1
2017-Dec-10 13:31N 36°44' W 076°17'2 3.3
2017-Dec-10 13:00N 36°43' W 076°15'0 0.4
2017-Dec-10 12:30N 36°43' W 076°15'0 0.0
2017-Dec-10 12:00N 36°43' W 076°15'0 0.0
2017-Dec-10 11:31N 36°43' W 076°15'0 0.0
2017-Dec-10 11:00N 36°43' W 076°15'0 0.0
2017-Dec-10 10:31N 36°43' W 076°15'0 0.0
2017-Dec-10 10:01N 36°43' W 076°15'0 0.0
2017-Dec-10 09:31N 36°43' W 076°15'0 0.0
2017-Dec-10 09:00N 36°43' W 076°15'0 0.0
2017-Dec-10 08:30N 36°43' W 076°15'0 0.0
2017-Dec-10 08:01N 36°43' W 076°15'0 0.0
2017-Dec-10 07:30N 36°43' W 076°15'0 0.0
2017-Dec-10 07:01N 36°43' W 076°15'0 0.0
2017-Dec-10 06:31N 36°43' W 076°15'0 0.0
2017-Dec-10 06:01N 36°43' W 076°15'0 0.0
2017-Dec-10 05:30N 36°43' W 076°15'0 0.0
2017-Dec-10 05:00N 36°43' W 076°15'0 0.0
2017-Dec-10 04:30N 36°43' W 076°15'0 0.0
2017-Dec-10 04:00N 36°43' W 076°15'0 0.0
2017-Dec-10 03:31N 36°43' W 076°15'0 0.0
2017-Dec-10 03:00N 36°43' W 076°15'0 0.0
2017-Dec-10 02:30N 36°43' W 076°15'0 0.0
2017-Dec-10 02:00N 36°43' W 076°15'0 0.0
2017-Dec-10 01:31N 36°43' W 076°15'0 0.0
2017-Dec-10 01:01N 36°43' W 076°15'0 0.0
2017-Dec-10 00:28N 36°43' W 076°15'0 0.0
2017-Dec-09 23:28N 36°43' W 076°15'0 0.0
2017-Dec-09 22:56N 36°43' W 076°15'0 0.0
2017-Dec-09 22:25N 36°43' W 076°15'0 0.9
2017-Dec-09 22:01N 36°43' W 076°14'3 5.3
2017-Dec-09 21:21N 36°43' W 076°10'2 5.3
2017-Dec-09 20:57N 36°43' W 076°07'3 5.0
2017-Dec-09 20:20N 36°42' W 076°04'2 5.2
2017-Dec-09 19:58N 36°40' W 076°04'1 0.0
2017-Dec-07 18:55N 36°41' W 076°04'2 3.6
2017-Dec-07 18:21N 36°43' W 076°05'1 3.5
2017-Dec-07 17:57N 36°43' W 076°07'5 3.3
2017-Dec-07 16:28N 36°43' W 076°13'2 3.5
2017-Dec-07 16:00N 36°43' W 076°15'0 0.5
2017-Dec-07 15:31N 36°43' W 076°15'1 2.6
2017-Dec-07 15:00N 36°44' W 076°16'2 4.0
2017-Dec-07 14:31N 36°46' W 076°18'1 2.3
2017-Dec-07 14:01N 36°47' W 076°18'0 0.0
2017-Dec-07 13:31N 36°47' W 076°18'1 2.4
2017-Dec-07 13:01N 36°45' W 076°18'2 4.8
2017-Dec-07 12:30N 36°44' W 076°16'1 2.5
2017-Dec-07 12:01N 36°43' W 076°14'1 1.1
2017-Dec-07 11:28N 36°43' W 076°14'  
2017-Dec-02 00:44N 35°05' W 076°33'1 4.5
2017-Dec-02 00:25N 35°04' W 076°34'2 4.4
2017-Dec-01 23:59N 35°03' W 076°36'2 4.5
2017-Dec-01 23:28N 35°02' W 076°38'2 4.3
2017-Dec-01 22:57N 35°00' W 076°41'3 3.5
2017-Dec-01 22:05N 34°57' W 076°40'0 4.1
2017-Dec-01 22:01N 34°57' W 076°40'2 3.4
2017-Dec-01 21:31N 34°55' W 076°40'2 3.3
2017-Dec-01 21:01N 34°54' W 076°41'1 2.7
2017-Dec-01 20:31N 34°53' W 076°41'1 2.8
2017-Dec-01 20:00N 34°51' W 076°41'1 2.5
2017-Dec-01 19:30N 34°50' W 076°41'1 2.3
2017-Dec-01 19:01N 34°49' W 076°41'1 2.5
2017-Dec-01 18:30N 34°48' W 076°41'1 2.4
2017-Dec-01 18:01N 34°47' W 076°41'1 2.9
2017-Dec-01 17:31N 34°45' W 076°40'2 3.3
2017-Dec-01 17:01N 34°44' W 076°42'  

Dump ship's entire track history